sensor_id;sensor_type;location;lat;lon;timestamp;temperature;humidity
17200;DHT22;8716;52.268;20.968;2023-09-19T00:01:09;20.50;99.90
17200;DHT22;8716;52.268;20.968;2023-09-19T00:03:38;20.50;99.90
17200;DHT22;8716;52.268;20.968;2023-09-19T00:06:09;20.40;99.90
17200;DHT22;8716;52.268;20.968;2023-09-19T00:08:40;20.40;99.90
17200;DHT22;8716;52.268;20.968;2023-09-19T00:11:12;20.40;99.90
17200;DHT22;8716;52.268;20.968;2023-09-19T00:13:41;20.40;99.90
17200;DHT22;8716;52.268;20.968;2023-09-19T00:16:11;20.30;99.90
17200;DHT22;8716;52.268;20.968;2023-09-19T00:18:39;20.30;99.90
17200;DHT22;8716;52.268;20.968;2023-09-19T00:21:08;20.30;99.90
17200;DHT22;8716;52.268;20.968;2023-09-19T00:23:37;20.20;99.90
17200;DHT22;8716;52.268;20.968;2023-09-19T00:26:05;20.20;99.90
17200;DHT22;8716;52.268;20.968;2023-09-19T00:28:35;20.30;99.90
17200;DHT22;8716;52.268;20.968;2023-09-19T00:31:03;20.20;99.90
17200;DHT22;8716;52.268;20.968;2023-09-19T00:33:32;20.20;99.90
17200;DHT22;8716;52.268;20.968;2023-09-19T00:36:01;20.20;99.90
17200;DHT22;8716;52.268;20.968;2023-09-19T00:38:32;20.20;99.90
17200;DHT22;8716;52.268;20.968;2023-09-19T00:41:01;20.20;99.90
17200;DHT22;8716;52.268;20.968;2023-09-19T00:43:29;20.20;99.90
17200;DHT22;8716;52.268;20.968;2023-09-19T00:46:03;20.20;99.90
17200;DHT22;8716;52.268;20.968;2023-09-19T00:48:40;20.20;99.90
17200;DHT22;8716;52.268;20.968;2023-09-19T00:51:11;20.10;99.90
17200;DHT22;8716;52.268;20.968;2023-09-19T00:53:41;20.10;99.90
17200;DHT22;8716;52.268;20.968;2023-09-19T00:56:13;20.10;99.90
17200;DHT22;8716;52.268;20.968;2023-09-19T00:58:42;20.10;99.90
17200;DHT22;8716;52.268;20.968;2023-09-19T01:01:12;20.10;99.90
17200;DHT22;8716;52.268;20.968;2023-09-19T01:03:42;20.10;99.90
17200;DHT22;8716;52.268;20.968;2023-09-19T01:06:13;20.10;99.90
17200;DHT22;8716;52.268;20.968;2023-09-19T01:08:41;20.00;99.90
17200;DHT22;8716;52.268;20.968;2023-09-19T01:11:14;20.00;99.90
17200;DHT22;8716;52.268;20.968;2023-09-19T01:13:53;20.00;99.90
17200;DHT22;8716;52.268;20.968;2023-09-19T01:16:35;20.00;99.90
17200;DHT22;8716;52.268;20.968;2023-09-19T01:19:33;20.00;99.90
17200;DHT22;8716;52.268;20.968;2023-09-19T01:22:13;19.90;99.90
17200;DHT22;8716;52.268;20.968;2023-09-19T01:25:03;19.90;99.90
17200;DHT22;8716;52.268;20.968;2023-09-19T01:28:01;19.90;99.90
17200;DHT22;8716;52.268;20.968;2023-09-19T01:30:35;19.90;99.90
17200;DHT22;8716;52.268;20.968;2023-09-19T01:33:07;19.90;99.90
17200;DHT22;8716;52.268;20.968;2023-09-19T01:35:38;19.90;99.90
17200;DHT22;8716;52.268;20.968;2023-09-19T01:38:06;19.90;99.90
17200;DHT22;8716;52.268;20.968;2023-09-19T01:40:41;19.90;99.90
17200;DHT22;8716;52.268;20.968;2023-09-19T01:43:16;19.90;99.90
17200;DHT22;8716;52.268;20.968;2023-09-19T01:45:57;19.90;99.90
17200;DHT22;8716;52.268;20.968;2023-09-19T01:48:35;19.80;99.90
17200;DHT22;8716;52.268;20.968;2023-09-19T01:51:10;19.90;99.90
17200;DHT22;8716;52.268;20.968;2023-09-19T01:53:49;19.90;99.90
17200;DHT22;8716;52.268;20.968;2023-09-19T01:56:25;19.90;99.90
17200;DHT22;8716;52.268;20.968;2023-09-19T01:59:01;19.90;99.90
17200;DHT22;8716;52.268;20.968;2023-09-19T02:01:33;19.90;99.90
17200;DHT22;8716;52.268;20.968;2023-09-19T02:04:04;19.90;99.90
17200;DHT22;8716;52.268;20.968;2023-09-19T02:06:33;19.90;99.90
17200;DHT22;8716;52.268;20.968;2023-09-19T02:09:02;19.90;99.90
17200;DHT22;8716;52.268;20.968;2023-09-19T02:11:30;19.90;99.90
17200;DHT22;8716;52.268;20.968;2023-09-19T02:13:59;19.90;99.90
17200;DHT22;8716;52.268;20.968;2023-09-19T02:16:27;19.90;99.90
17200;DHT22;8716;52.268;20.968;2023-09-19T02:18:57;19.90;99.90
17200;DHT22;8716;52.268;20.968;2023-09-19T02:21:27;19.90;99.90
17200;DHT22;8716;52.268;20.968;2023-09-19T02:23:56;19.90;99.90
17200;DHT22;8716;52.268;20.968;2023-09-19T02:26:25;19.90;99.90
17200;DHT22;8716;52.268;20.968;2023-09-19T02:28:54;19.80;99.90
17200;DHT22;8716;52.268;20.968;2023-09-19T02:31:23;19.80;99.90
17200;DHT22;8716;52.268;20.968;2023-09-19T02:33:53;19.80;99.90
17200;DHT22;8716;52.268;20.968;2023-09-19T02:36:22;19.80;99.90
17200;DHT22;8716;52.268;20.968;2023-09-19T02:38:51;19.80;99.90
17200;DHT22;8716;52.268;20.968;2023-09-19T02:41:20;19.70;99.90
17200;DHT22;8716;52.268;20.968;2023-09-19T02:43:48;19.70;99.90
17200;DHT22;8716;52.268;20.968;2023-09-19T02:46:16;19.70;99.90
17200;DHT22;8716;52.268;20.968;2023-09-19T02:48:45;19.70;99.90
17200;DHT22;8716;52.268;20.968;2023-09-19T02:51:14;19.60;99.90
17200;DHT22;8716;52.268;20.968;2023-09-19T02:53:43;19.60;99.90
17200;DHT22;8716;52.268;20.968;2023-09-19T02:56:14;19.60;99.90
17200;DHT22;8716;52.268;20.968;2023-09-19T02:58:43;19.60;99.90
17200;DHT22;8716;52.268;20.968;2023-09-19T03:01:11;19.60;99.90
17200;DHT22;8716;52.268;20.968;2023-09-19T03:03:40;19.50;99.90
17200;DHT22;8716;52.268;20.968;2023-09-19T03:06:08;19.50;99.90
17200;DHT22;8716;52.268;20.968;2023-09-19T03:08:37;19.50;99.90
17200;DHT22;8716;52.268;20.968;2023-09-19T03:11:07;19.40;99.90
17200;DHT22;8716;52.268;20.968;2023-09-19T03:13:40;19.40;99.90
17200;DHT22;8716;52.268;20.968;2023-09-19T03:16:10;19.40;99.90
17200;DHT22;8716;52.268;20.968;2023-09-19T03:18:39;19.40;99.90
17200;DHT22;8716;52.268;20.968;2023-09-19T03:21:07;19.40;99.90
17200;DHT22;8716;52.268;20.968;2023-09-19T03:23:36;19.30;99.90
17200;DHT22;8716;52.268;20.968;2023-09-19T03:26:08;19.30;99.90
17200;DHT22;8716;52.268;20.968;2023-09-19T03:28:39;19.30;99.90
17200;DHT22;8716;52.268;20.968;2023-09-19T03:31:08;19.30;99.90
17200;DHT22;8716;52.268;20.968;2023-09-19T03:33:36;19.30;99.90
17200;DHT22;8716;52.268;20.968;2023-09-19T03:36:05;19.20;99.90
17200;DHT22;8716;52.268;20.968;2023-09-19T03:38:34;19.20;99.90
17200;DHT22;8716;52.268;20.968;2023-09-19T03:41:03;19.20;99.90
17200;DHT22;8716;52.268;20.968;2023-09-19T03:43:35;19.20;99.90
17200;DHT22;8716;52.268;20.968;2023-09-19T03:46:04;19.20;99.90
17200;DHT22;8716;52.268;20.968;2023-09-19T03:48:33;19.20;99.90
17200;DHT22;8716;52.268;20.968;2023-09-19T03:51:03;19.20;99.90
17200;DHT22;8716;52.268;20.968;2023-09-19T03:53:32;19.20;99.90
17200;DHT22;8716;52.268;20.968;2023-09-19T03:56:00;19.20;99.90
17200;DHT22;8716;52.268;20.968;2023-09-19T03:58:31;19.20;99.90
17200;DHT22;8716;52.268;20.968;2023-09-19T04:01:03;19.20;99.90
17200;DHT22;8716;52.268;20.968;2023-09-19T04:03:33;19.20;99.90
17200;DHT22;8716;52.268;20.968;2023-09-19T04:06:13;19.20;99.90
17200;DHT22;8716;52.268;20.968;2023-09-19T04:08:42;19.20;99.90
17200;DHT22;8716;52.268;20.968;2023-09-19T04:11:11;19.20;99.90
17200;DHT22;8716;52.268;20.968;2023-09-19T04:13:40;19.20;99.90
17200;DHT22;8716;52.268;20.968;2023-09-19T04:16:10;19.30;99.90
17200;DHT22;8716;52.268;20.968;2023-09-19T04:18:38;19.20;99.90
17200;DHT22;8716;52.268;20.968;2023-09-19T04:21:08;19.20;99.90
17200;DHT22;8716;52.268;20.968;2023-09-19T04:23:36;19.30;99.90
17200;DHT22;8716;52.268;20.968;2023-09-19T04:26:05;19.30;99.90
17200;DHT22;8716;52.268;20.968;2023-09-19T04:28:36;19.30;99.90
17200;DHT22;8716;52.268;20.968;2023-09-19T04:31:10;19.30;99.90
17200;DHT22;8716;52.268;20.968;2023-09-19T04:33:38;19.30;99.90
17200;DHT22;8716;52.268;20.968;2023-09-19T04:36:07;19.30;99.90
17200;DHT22;8716;52.268;20.968;2023-09-19T04:38:57;19.30;99.90
17200;DHT22;8716;52.268;20.968;2023-09-19T04:41:25;19.30;99.90
17200;DHT22;8716;52.268;20.968;2023-09-19T04:43:53;19.30;99.90
17200;DHT22;8716;52.268;20.968;2023-09-19T04:46:24;19.30;99.90
17200;DHT22;8716;52.268;20.968;2023-09-19T04:48:52;19.30;99.90
17200;DHT22;8716;52.268;20.968;2023-09-19T04:51:20;19.30;99.90
17200;DHT22;8716;52.268;20.968;2023-09-19T04:53:49;19.20;99.90
17200;DHT22;8716;52.268;20.968;2023-09-19T04:56:17;19.30;99.90
17200;DHT22;8716;52.268;20.968;2023-09-19T04:58:48;19.30;99.90
17200;DHT22;8716;52.268;20.968;2023-09-19T05:01:16;19.30;99.90
17200;DHT22;8716;52.268;20.968;2023-09-19T05:03:46;19.30;99.90
17200;DHT22;8716;52.268;20.968;2023-09-19T05:06:19;19.40;99.90
17200;DHT22;8716;52.268;20.968;2023-09-19T05:08:51;19.40;99.90
17200;DHT22;8716;52.268;20.968;2023-09-19T05:11:20;19.50;99.90
17200;DHT22;8716;52.268;20.968;2023-09-19T05:13:50;19.50;99.90
17200;DHT22;8716;52.268;20.968;2023-09-19T05:16:19;19.50;99.90
17200;DHT22;8716;52.268;20.968;2023-09-19T05:18:49;19.60;99.90
17200;DHT22;8716;52.268;20.968;2023-09-19T05:21:18;19.70;99.90
17200;DHT22;8716;52.268;20.968;2023-09-19T05:23:46;19.70;99.90
17200;DHT22;8716;52.268;20.968;2023-09-19T05:26:14;19.80;99.90
17200;DHT22;8716;52.268;20.968;2023-09-19T05:28:43;19.80;99.90
17200;DHT22;8716;52.268;20.968;2023-09-19T05:31:11;19.80;99.90
17200;DHT22;8716;52.268;20.968;2023-09-19T05:33:40;19.90;99.90
17200;DHT22;8716;52.268;20.968;2023-09-19T05:36:09;19.90;99.90
17200;DHT22;8716;52.268;20.968;2023-09-19T05:38:40;19.90;99.90
17200;DHT22;8716;52.268;20.968;2023-09-19T05:41:11;19.90;99.90
17200;DHT22;8716;52.268;20.968;2023-09-19T05:43:41;20.00;99.90
17200;DHT22;8716;52.268;20.968;2023-09-19T05:46:10;20.00;99.90
17200;DHT22;8716;52.268;20.968;2023-09-19T05:48:39;20.00;99.90
17200;DHT22;8716;52.268;20.968;2023-09-19T05:51:09;20.10;99.90
17200;DHT22;8716;52.268;20.968;2023-09-19T05:53:38;20.20;99.90
17200;DHT22;8716;52.268;20.968;2023-09-19T05:56:06;20.20;99.90
17200;DHT22;8716;52.268;20.968;2023-09-19T05:58:36;20.20;99.90
17200;DHT22;8716;52.268;20.968;2023-09-19T06:01:05;20.30;99.90
17200;DHT22;8716;52.268;20.968;2023-09-19T06:03:34;20.40;99.90
17200;DHT22;8716;52.268;20.968;2023-09-19T06:06:02;20.60;99.90
17200;DHT22;8716;52.268;20.968;2023-09-19T06:08:34;20.80;99.90
17200;DHT22;8716;52.268;20.968;2023-09-19T06:11:02;20.90;99.90
17200;DHT22;8716;52.268;20.968;2023-09-19T06:13:32;21.10;99.90
17200;DHT22;8716;52.268;20.968;2023-09-19T06:16:00;21.20;99.90
17200;DHT22;8716;52.268;20.968;2023-09-19T06:18:32;21.40;99.90
17200;DHT22;8716;52.268;20.968;2023-09-19T06:21:01;21.50;99.90
17200;DHT22;8716;52.268;20.968;2023-09-19T06:23:36;21.60;99.90
17200;DHT22;8716;52.268;20.968;2023-09-19T06:26:05;21.70;99.90
17200;DHT22;8716;52.268;20.968;2023-09-19T06:28:36;21.70;99.90
17200;DHT22;8716;52.268;20.968;2023-09-19T06:31:07;21.80;99.90
17200;DHT22;8716;52.268;20.968;2023-09-19T06:33:37;21.90;99.90
17200;DHT22;8716;52.268;20.968;2023-09-19T06:36:09;21.90;99.90
17200;DHT22;8716;52.268;20.968;2023-09-19T06:38:39;22.00;99.90
17200;DHT22;8716;52.268;20.968;2023-09-19T06:41:08;22.00;99.90
17200;DHT22;8716;52.268;20.968;2023-09-19T06:43:37;22.10;99.90
17200;DHT22;8716;52.268;20.968;2023-09-19T06:46:06;22.20;99.90
17200;DHT22;8716;52.268;20.968;2023-09-19T06:48:35;22.40;99.90
17200;DHT22;8716;52.268;20.968;2023-09-19T06:51:03;22.60;99.90
17200;DHT22;8716;52.268;20.968;2023-09-19T06:53:34;22.80;99.90
17200;DHT22;8716;52.268;20.968;2023-09-19T06:56:06;23.00;99.90
17200;DHT22;8716;52.268;20.968;2023-09-19T06:58:34;23.30;99.90
17200;DHT22;8716;52.268;20.968;2023-09-19T07:01:05;23.50;99.90
17200;DHT22;8716;52.268;20.968;2023-09-19T07:03:33;23.70;99.90
17200;DHT22;8716;52.268;20.968;2023-09-19T07:06:01;23.90;99.90
17200;DHT22;8716;52.268;20.968;2023-09-19T07:08:31;24.10;99.90
17200;DHT22;8716;52.268;20.968;2023-09-19T07:11:00;24.30;99.90
17200;DHT22;8716;52.268;20.968;2023-09-19T07:13:29;24.50;99.90
17200;DHT22;8716;52.268;20.968;2023-09-19T07:16:00;24.70;99.90
17200;DHT22;8716;52.268;20.968;2023-09-19T07:18:29;24.80;99.90
17200;DHT22;8716;52.268;20.968;2023-09-19T07:20:58;24.90;99.90
17200;DHT22;8716;52.268;20.968;2023-09-19T07:23:32;25.00;99.90
17200;DHT22;8716;52.268;20.968;2023-09-19T07:26:02;25.00;99.90
17200;DHT22;8716;52.268;20.968;2023-09-19T07:28:33;25.00;99.90
17200;DHT22;8716;52.268;20.968;2023-09-19T07:31:03;25.00;99.90
17200;DHT22;8716;52.268;20.968;2023-09-19T07:33:34;25.10;99.90
17200;DHT22;8716;52.268;20.968;2023-09-19T07:36:03;25.20;99.90
17200;DHT22;8716;52.268;20.968;2023-09-19T07:38:32;25.40;99.90
17200;DHT22;8716;52.268;20.968;2023-09-19T07:41:02;25.50;99.90
17200;DHT22;8716;52.268;20.968;2023-09-19T07:43:33;25.70;99.90
17200;DHT22;8716;52.268;20.968;2023-09-19T07:46:06;25.80;99.90
17200;DHT22;8716;52.268;20.968;2023-09-19T07:48:36;25.90;99.90
17200;DHT22;8716;52.268;20.968;2023-09-19T07:51:05;26.00;99.90
17200;DHT22;8716;52.268;20.968;2023-09-19T07:53:34;25.90;99.90
17200;DHT22;8716;52.268;20.968;2023-09-19T07:56:04;25.80;99.90
17200;DHT22;8716;52.268;20.968;2023-09-19T07:58:34;25.70;99.90
17200;DHT22;8716;52.268;20.968;2023-09-19T08:01:04;25.60;99.90
17200;DHT22;8716;52.268;20.968;2023-09-19T08:03:33;25.50;99.90
17200;DHT22;8716;52.268;20.968;2023-09-19T08:06:05;25.40;99.90
17200;DHT22;8716;52.268;20.968;2023-09-19T08:08:34;25.30;99.90
17200;DHT22;8716;52.268;20.968;2023-09-19T08:11:04;25.20;99.90
17200;DHT22;8716;52.268;20.968;2023-09-19T08:13:40;25.10;99.90
17200;DHT22;8716;52.268;20.968;2023-09-19T08:16:11;25.10;99.90
17200;DHT22;8716;52.268;20.968;2023-09-19T08:18:39;25.10;99.90
17200;DHT22;8716;52.268;20.968;2023-09-19T08:21:08;25.10;99.90
17200;DHT22;8716;52.268;20.968;2023-09-19T08:23:38;25.10;99.90
17200;DHT22;8716;52.268;20.968;2023-09-19T08:26:07;25.10;99.90
17200;DHT22;8716;52.268;20.968;2023-09-19T08:28:35;25.10;99.90
17200;DHT22;8716;52.268;20.968;2023-09-19T08:31:06;25.10;99.90
17200;DHT22;8716;52.268;20.968;2023-09-19T08:33:37;25.10;99.90
17200;DHT22;8716;52.268;20.968;2023-09-19T08:36:07;25.10;99.90
17200;DHT22;8716;52.268;20.968;2023-09-19T08:38:36;25.20;99.90
17200;DHT22;8716;52.268;20.968;2023-09-19T08:41:06;25.30;99.90
17200;DHT22;8716;52.268;20.968;2023-09-19T08:43:36;25.30;99.90
17200;DHT22;8716;52.268;20.968;2023-09-19T08:46:10;25.30;99.90
17200;DHT22;8716;52.268;20.968;2023-09-19T08:48:45;25.10;99.90
17200;DHT22;8716;52.268;20.968;2023-09-19T08:51:19;25.00;99.90
17200;DHT22;8716;52.268;20.968;2023-09-19T08:53:51;24.80;99.90
17200;DHT22;8716;52.268;20.968;2023-09-19T08:56:20;24.80;99.90
17200;DHT22;8716;52.268;20.968;2023-09-19T08:58:51;24.80;99.90
17200;DHT22;8716;52.268;20.968;2023-09-19T09:01:23;24.70;99.90
17200;DHT22;8716;52.268;20.968;2023-09-19T09:03:53;24.70;99.90
17200;DHT22;8716;52.268;20.968;2023-09-19T09:06:23;24.50;99.90
17200;DHT22;8716;52.268;20.968;2023-09-19T09:08:52;24.50;99.90
17200;DHT22;8716;52.268;20.968;2023-09-19T09:11:21;24.40;99.90
17200;DHT22;8716;52.268;20.968;2023-09-19T09:13:50;24.40;99.90
17200;DHT22;8716;52.268;20.968;2023-09-19T09:16:23;24.30;99.90
17200;DHT22;8716;52.268;20.968;2023-09-19T09:18:53;24.20;99.90
17200;DHT22;8716;52.268;20.968;2023-09-19T09:21:25;24.10;99.90
17200;DHT22;8716;52.268;20.968;2023-09-19T09:23:53;24.00;99.90
17200;DHT22;8716;52.268;20.968;2023-09-19T09:26:42;23.90;99.90
17200;DHT22;8716;52.268;20.968;2023-09-19T09:29:13;23.80;99.90
17200;DHT22;8716;52.268;20.968;2023-09-19T09:31:48;23.60;99.90
17200;DHT22;8716;52.268;20.968;2023-09-19T09:34:17;23.40;99.90
17200;DHT22;8716;52.268;20.968;2023-09-19T09:36:48;23.20;99.90
17200;DHT22;8716;52.268;20.968;2023-09-19T09:39:30;23.00;99.90
17200;DHT22;8716;52.268;20.968;2023-09-19T09:41:59;22.80;99.90
17200;DHT22;8716;52.268;20.968;2023-09-19T09:44:27;22.70;99.90
17200;DHT22;8716;52.268;20.968;2023-09-19T09:47:00;22.50;99.90
17200;DHT22;8716;52.268;20.968;2023-09-19T09:49:48;22.40;99.90
17200;DHT22;8716;52.268;20.968;2023-09-19T09:52:22;22.30;99.90
17200;DHT22;8716;52.268;20.968;2023-09-19T09:54:59;22.10;99.90
17200;DHT22;8716;52.268;20.968;2023-09-19T09:57:28;21.90;99.90
17200;DHT22;8716;52.268;20.968;2023-09-19T09:59:57;21.70;99.90
17200;DHT22;8716;52.268;20.968;2023-09-19T10:02:44;21.60;99.90
17200;DHT22;8716;52.268;20.968;2023-09-19T10:05:15;21.50;99.90
17200;DHT22;8716;52.268;20.968;2023-09-19T10:08:11;21.40;99.90
17200;DHT22;8716;52.268;20.968;2023-09-19T10:10:42;21.30;99.90
17200;DHT22;8716;52.268;20.968;2023-09-19T10:13:22;21.20;99.90
17200;DHT22;8716;52.268;20.968;2023-09-19T10:15:55;21.10;99.90
17200;DHT22;8716;52.268;20.968;2023-09-19T10:18:27;21.00;99.90
17200;DHT22;8716;52.268;20.968;2023-09-19T10:20:59;21.00;99.90
17200;DHT22;8716;52.268;20.968;2023-09-19T10:23:31;21.00;99.90
17200;DHT22;8716;52.268;20.968;2023-09-19T10:26:01;21.00;99.90
17200;DHT22;8716;52.268;20.968;2023-09-19T10:28:30;21.00;99.90
17200;DHT22;8716;52.268;20.968;2023-09-19T10:31:00;21.00;99.90
17200;DHT22;8716;52.268;20.968;2023-09-19T10:33:36;21.10;99.90
17200;DHT22;8716;52.268;20.968;2023-09-19T10:36:05;21.20;99.90
17200;DHT22;8716;52.268;20.968;2023-09-19T10:38:35;21.30;99.90
17200;DHT22;8716;52.268;20.968;2023-09-19T10:41:08;21.40;99.90
17200;DHT22;8716;52.268;20.968;2023-09-19T10:43:39;21.50;99.90
17200;DHT22;8716;52.268;20.968;2023-09-19T10:46:12;21.60;99.90
17200;DHT22;8716;52.268;20.968;2023-09-19T10:48:42;21.70;99.90
17200;DHT22;8716;52.268;20.968;2023-09-19T10:51:21;21.80;99.90
17200;DHT22;8716;52.268;20.968;2023-09-19T10:53:53;21.90;99.90
17200;DHT22;8716;52.268;20.968;2023-09-19T10:56:25;21.90;99.90
17200;DHT22;8716;52.268;20.968;2023-09-19T10:59:06;21.90;99.90
17200;DHT22;8716;52.268;20.968;2023-09-19T11:01:42;21.90;99.90
17200;DHT22;8716;52.268;20.968;2023-09-19T11:04:27;21.90;99.90
17200;DHT22;8716;52.268;20.968;2023-09-19T11:07:04;21.90;99.90
17200;DHT22;8716;52.268;20.968;2023-09-19T11:09:49;22.00;99.90
17200;DHT22;8716;52.268;20.968;2023-09-19T11:12:48;22.00;99.90
17200;DHT22;8716;52.268;20.968;2023-09-19T11:18:52;21.90;99.90
17200;DHT22;8716;52.268;20.968;2023-09-19T11:21:53;21.90;99.90
17200;DHT22;8716;52.268;20.968;2023-09-19T11:24:31;22.00;99.90
17200;DHT22;8716;52.268;20.968;2023-09-19T11:27:16;22.20;99.90
17200;DHT22;8716;52.268;20.968;2023-09-19T11:30:35;22.20;99.90
17200;DHT22;8716;52.268;20.968;2023-09-19T11:33:24;22.30;99.90
17200;DHT22;8716;52.268;20.968;2023-09-19T11:36:10;22.40;99.90
17200;DHT22;8716;52.268;20.968;2023-09-19T11:39:01;22.40;99.90
17200;DHT22;8716;52.268;20.968;2023-09-19T11:41:39;22.60;99.90
17200;DHT22;8716;52.268;20.968;2023-09-19T11:44:32;22.50;99.90
17200;DHT22;8716;52.268;20.968;2023-09-19T11:47:04;22.60;99.90
17200;DHT22;8716;52.268;20.968;2023-09-19T11:49:34;22.50;99.90
17200;DHT22;8716;52.268;20.968;2023-09-19T11:52:04;22.50;99.90
17200;DHT22;8716;52.268;20.968;2023-09-19T11:54:37;22.40;99.90
17200;DHT22;8716;52.268;20.968;2023-09-19T11:57:09;22.30;99.90
17200;DHT22;8716;52.268;20.968;2023-09-19T11:59:39;22.30;99.90
17200;DHT22;8716;52.268;20.968;2023-09-19T12:02:09;22.30;99.90
17200;DHT22;8716;52.268;20.968;2023-09-19T12:04:42;22.30;99.90
17200;DHT22;8716;52.268;20.968;2023-09-19T12:07:13;22.30;99.90
17200;DHT22;8716;52.268;20.968;2023-09-19T12:09:47;22.30;99.90
17200;DHT22;8716;52.268;20.968;2023-09-19T12:12:19;22.40;99.90
17200;DHT22;8716;52.268;20.968;2023-09-19T12:14:50;22.50;99.90
17200;DHT22;8716;52.268;20.968;2023-09-19T12:17:19;22.50;99.90
17200;DHT22;8716;52.268;20.968;2023-09-19T12:19:50;22.50;99.90
17200;DHT22;8716;52.268;20.968;2023-09-19T12:22:20;22.50;99.90
17200;DHT22;8716;52.268;20.968;2023-09-19T12:24:49;22.60;99.90
17200;DHT22;8716;52.268;20.968;2023-09-19T12:27:21;22.70;99.90
17200;DHT22;8716;52.268;20.968;2023-09-19T12:29:53;22.60;99.90
17200;DHT22;8716;52.268;20.968;2023-09-19T12:32:34;22.60;99.90
17200;DHT22;8716;52.268;20.968;2023-09-19T12:35:05;22.60;99.90
17200;DHT22;8716;52.268;20.968;2023-09-19T12:37:43;22.60;99.90
17200;DHT22;8716;52.268;20.968;2023-09-19T12:40:17;22.50;99.90
17200;DHT22;8716;52.268;20.968;2023-09-19T12:42:50;22.50;99.90
17200;DHT22;8716;52.268;20.968;2023-09-19T12:45:25;22.40;99.90
17200;DHT22;8716;52.268;20.968;2023-09-19T12:48:19;22.30;99.90
17200;DHT22;8716;52.268;20.968;2023-09-19T12:51:03;22.30;99.90
17200;DHT22;8716;52.268;20.968;2023-09-19T12:53:35;22.20;99.90
17200;DHT22;8716;52.268;20.968;2023-09-19T12:56:11;22.20;99.90
17200;DHT22;8716;52.268;20.968;2023-09-19T12:58:52;22.20;99.90
17200;DHT22;8716;52.268;20.968;2023-09-19T13:01:26;22.10;99.90
17200;DHT22;8716;52.268;20.968;2023-09-19T13:04:13;22.10;99.90
17200;DHT22;8716;52.268;20.968;2023-09-19T13:06:50;22.10;99.90
17200;DHT22;8716;52.268;20.968;2023-09-19T13:09:25;22.10;99.90
17200;DHT22;8716;52.268;20.968;2023-09-19T13:12:39;22.00;99.90
17200;DHT22;8716;52.268;20.968;2023-09-19T13:15:17;22.00;99.90
17200;DHT22;8716;52.268;20.968;2023-09-19T13:17:48;22.00;99.90
17200;DHT22;8716;52.268;20.968;2023-09-19T13:20:29;22.00;99.90
17200;DHT22;8716;52.268;20.968;2023-09-19T13:23:03;22.00;99.90
17200;DHT22;8716;52.268;20.968;2023-09-19T13:25:40;22.10;99.90
17200;DHT22;8716;52.268;20.968;2023-09-19T13:28:11;22.00;99.90
17200;DHT22;8716;52.268;20.968;2023-09-19T13:30:40;22.00;99.90
17200;DHT22;8716;52.268;20.968;2023-09-19T13:33:11;22.00;99.90
17200;DHT22;8716;52.268;20.968;2023-09-19T13:35:46;22.00;99.90
17200;DHT22;8716;52.268;20.968;2023-09-19T13:38:15;22.10;99.90
17200;DHT22;8716;52.268;20.968;2023-09-19T13:40:45;22.10;99.90
17200;DHT22;8716;52.268;20.968;2023-09-19T13:43:15;22.10;99.90
17200;DHT22;8716;52.268;20.968;2023-09-19T13:45:44;22.20;99.90
17200;DHT22;8716;52.268;20.968;2023-09-19T13:48:12;22.20;99.90
17200;DHT22;8716;52.268;20.968;2023-09-19T13:50:40;22.10;99.90
17200;DHT22;8716;52.268;20.968;2023-09-19T13:53:10;22.20;99.90
17200;DHT22;8716;52.268;20.968;2023-09-19T13:55:38;22.20;99.90
17200;DHT22;8716;52.268;20.968;2023-09-19T13:58:07;22.20;99.90
17200;DHT22;8716;52.268;20.968;2023-09-19T14:00:39;22.20;99.90
17200;DHT22;8716;52.268;20.968;2023-09-19T14:03:08;22.20;99.90
17200;DHT22;8716;52.268;20.968;2023-09-19T14:05:37;22.20;99.90
17200;DHT22;8716;52.268;20.968;2023-09-19T14:08:06;22.20;99.90
17200;DHT22;8716;52.268;20.968;2023-09-19T14:10:34;22.20;99.90
17200;DHT22;8716;52.268;20.968;2023-09-19T14:13:03;22.20;99.90
17200;DHT22;8716;52.268;20.968;2023-09-19T14:15:31;22.20;99.90
17200;DHT22;8716;52.268;20.968;2023-09-19T14:18:06;22.20;99.90
17200;DHT22;8716;52.268;20.968;2023-09-19T14:20:38;22.20;99.90
17200;DHT22;8716;52.268;20.968;2023-09-19T14:23:09;22.10;99.90
17200;DHT22;8716;52.268;20.968;2023-09-19T14:25:39;22.10;99.90
17200;DHT22;8716;52.268;20.968;2023-09-19T14:28:08;22.10;99.90
17200;DHT22;8716;52.268;20.968;2023-09-19T14:30:37;22.10;99.90
17200;DHT22;8716;52.268;20.968;2023-09-19T14:33:09;22.10;99.90
17200;DHT22;8716;52.268;20.968;2023-09-19T14:35:37;22.00;99.90
17200;DHT22;8716;52.268;20.968;2023-09-19T14:38:06;22.00;99.90
17200;DHT22;8716;52.268;20.968;2023-09-19T14:40:34;22.00;99.90
17200;DHT22;8716;52.268;20.968;2023-09-19T14:43:03;22.00;99.90
17200;DHT22;8716;52.268;20.968;2023-09-19T14:45:32;22.00;99.90
17200;DHT22;8716;52.268;20.968;2023-09-19T14:48:00;21.90;99.90
17200;DHT22;8716;52.268;20.968;2023-09-19T14:50:34;21.90;99.90
17200;DHT22;8716;52.268;20.968;2023-09-19T14:53:02;21.90;99.90
17200;DHT22;8716;52.268;20.968;2023-09-19T14:55:36;22.00;99.90
17200;DHT22;8716;52.268;20.968;2023-09-19T14:58:08;22.00;99.90
17200;DHT22;8716;52.268;20.968;2023-09-19T15:00:37;21.90;99.90
17200;DHT22;8716;52.268;20.968;2023-09-19T15:03:05;22.00;99.90
17200;DHT22;8716;52.268;20.968;2023-09-19T15:05:40;22.00;99.90
17200;DHT22;8716;52.268;20.968;2023-09-19T15:08:12;22.00;99.90
17200;DHT22;8716;52.268;20.968;2023-09-19T15:10:49;22.00;99.90
17200;DHT22;8716;52.268;20.968;2023-09-19T15:13:20;22.00;99.90
17200;DHT22;8716;52.268;20.968;2023-09-19T15:15:48;21.90;99.90
17200;DHT22;8716;52.268;20.968;2023-09-19T15:18:17;21.90;99.90
17200;DHT22;8716;52.268;20.968;2023-09-19T15:20:48;21.90;99.90
17200;DHT22;8716;52.268;20.968;2023-09-19T15:23:16;21.90;99.90
17200;DHT22;8716;52.268;20.968;2023-09-19T15:25:59;21.90;99.90
17200;DHT22;8716;52.268;20.968;2023-09-19T15:28:28;21.90;99.90
17200;DHT22;8716;52.268;20.968;2023-09-19T15:31:04;21.90;99.90
17200;DHT22;8716;52.268;20.968;2023-09-19T15:33:34;21.80;99.90
17200;DHT22;8716;52.268;20.968;2023-09-19T15:36:08;21.80;99.90
17200;DHT22;8716;52.268;20.968;2023-09-19T15:38:56;21.80;99.90
17200;DHT22;8716;52.268;20.968;2023-09-19T15:41:25;21.80;99.90
17200;DHT22;8716;52.268;20.968;2023-09-19T15:43:55;21.80;99.90
17200;DHT22;8716;52.268;20.968;2023-09-19T15:46:26;21.80;99.90
17200;DHT22;8716;52.268;20.968;2023-09-19T15:48:55;21.70;99.90
17200;DHT22;8716;52.268;20.968;2023-09-19T15:51:25;21.70;99.90
17200;DHT22;8716;52.268;20.968;2023-09-19T15:53:57;21.70;99.90
17200;DHT22;8716;52.268;20.968;2023-09-19T15:56:27;21.70;99.90
17200;DHT22;8716;52.268;20.968;2023-09-19T15:58:56;21.70;99.90
17200;DHT22;8716;52.268;20.968;2023-09-19T16:01:27;21.70;99.90
17200;DHT22;8716;52.268;20.968;2023-09-19T16:03:56;21.60;99.90